Browning, MT (59417)

2:11 PM MDT on July 24, 2014 (GMT -0600)
De La Salle Blackfeet School (KMTBROWN1) Elev 4367 ft | 48.56 °N, 113.02 °W | Change Station
Active Advisory: High Wind Warning Active Notice: Local Storm Report

Current weather conditions updated 5 seconds ago

Overcast
Overcast
61.1 °F
Feels Like 61.1 °F
N
33.0
Wind Variable Wind from West
Gusts 37.0 mph

Today is forecast to be Much Cooler than yesterday.

Today
High -- | Low -- °F
--% Chance of Precip.
Yesterday
High -- | Low -- °F
Precip. -- in
5:56 AM 9:19 PM
Waning Crescent, 4% visible
Pressure 29.93 in
Visibility 10.0 miles
Clouds Clear
Dew Point 35 °F
Humidity 38%
Rainfall 0.00 in
Snow Depth Not available.
UV 10 out of 12
Pollen 1.70 out of 12
Air Quality Not available.
Flu Activity Not available.
METAR KCTB 241956Z AUTO 25031G40KT 10SM CLR 19/02 A2993

More Conditions Fewer Conditions

Pressure 29.93 in
Visibility 10.0 miles
Clouds Clear
Dew Point 35 °F
Humidity 38%
Rainfall 0.00 in
Snow Depth Not available.
UV 10 out of 12
Pollen 1.70 out of 12
Air Quality Not available.
Flu Activity Not available.
METAR KCTB 241956Z AUTO 25031G40KT 10SM CLR 19/02 A2993

More Conditions Fewer Conditions

10-Day Weather Forecast

Almanac

Astronomy

Jul. 24, 2014 Rise Set
Actual Time 5:56 AM MDT 9:19 PM MDT
Civil Twilight 5:17 AM MDT 9:58 PM MDT
Nautical Twilight 4:26 AM MDT 10:48 PM MDT
Astronomical Twilight 3:19 AM MDT 11:54 PM MDT
Moon 4:09 AM MDT 7:34 PM MDT
Length of Visible Light 16h 40m
Length of Day
15h 23m
Tomorrow will be 2m 28s shorter.
Waning Crescent, 4% of the Moon is Illuminated
Today
Waning Crescent
Jul 26
New
Aug 3
First Quarter
Aug 10
Full
Aug 17
Last Quarter

Today's Extremes

State Highs State Lows

Community

WunderPhotos

Upload Photos

1,737,108 photos uploaded!

Nearby

Snow Depth

Station Depth Elevation
Badger Pass 0 in 6900 ft
Emery Creek 0 in 4350 ft
Wood Creek 1 in 5960 ft
Stahl Peak 0 in 6030 ft
North Fork Jocko 0 in 6330 ft

Earthquake Activity

City Distance Mag. Time & Date
No recent earthquake activity has been reported nearby.
Minimum magnitude displayed is 2.5.

Coastal Water Temperatures

Place Temperature
No Stations Reporting

Nearby Weather Stations

Station Location Temp. Windchill Dew Point Humidity Wind Precip. Elev Updated Type
De La Salle Blackfeet School, Browning, MT 61.1 °F - 35 °F 38% West  at  33.0 mph 0.00 in / hr 4367 ft 2:11 PM MDT Rapid Fire
RAWS BROWNING MT, Browning, MT 61 °F - 32 °F 33% WSW  at  22 mph 0.00 in / hr 4383 ft 1:21 PM MDT MADIS
HADS SUMMIT RAIN NEAR EAST GLACIER PA MT, Heart Butte, MT 49 °F 49 °F - - North  at  - 0.00 in / hr 5232 ft 12:30 PM MDT MADIS
RAWS DEEP CREEK MT, Heart Butte, MT 53 °F - 36 °F 52% WSW  at  31 mph 0.00 in / hr 5339 ft 1:21 PM MDT MADIS

Show More Stations Show Fewer Stations